Time;durP1;ratioP1;P1;durP2;ratioP2;P2;SDS_P1;SDS_P2;PMS_P1;PMS_P2;Temp;Humidity;BMP_temperature;BMP_pressure;BME280_temperature;BME280_humidity;BME280_pressure;Samples;Min_cycle;Max_cycle;Signal;HPM_P1;HPM_P2
2021/12/16 00:01:45;;;;;;;24.33;16.07;;;;;;;12.96;74.45;102079.50;5055170;28;20212;-73
2021/12/16 00:04:11;;;;;;;21.67;15.00;;;;;;;13.00;73.51;102069.53;5039502;28;20297;-74
2021/12/16 00:09:18;;;;;;;21.70;15.13;;;;;;;12.72;74.16;102059.16;5039127;28;20308;-73
2021/12/16 00:20:25;;;;;;;19.40;13.17;;;;;;;12.84;73.93;102074.69;5039030;28;20208;-72
2021/12/16 00:33:19;;;;;;;23.77;13.17;;;;;;;12.65;74.18;102071.94;5053760;28;20178;-71
2021/12/16 00:35:50;;;;;;;20.13;13.77;;;;;;;12.63;74.14;102064.88;5036850;28;20205;-71
2021/12/16 00:38:15;;;;;;;22.20;13.47;;;;;;;12.88;73.81;102064.72;5019552;28;20167;-71
2021/12/16 00:40:43;;;;;;;18.50;13.60;;;;;;;12.73;73.88;102071.59;5036204;28;20199;-71
2021/12/16 00:44:05;;;;;;;21.23;12.30;;;;;;;12.90;73.90;102079.78;5035672;28;20197;-71
2021/12/16 00:54:12;;;;;;;17.47;12.63;;;;;;;12.94;73.36;102086.75;5038795;28;20246;-72
2021/12/16 00:56:50;;;;;;;18.43;12.20;;;;;;;12.91;73.21;102096.72;5035680;28;20605;-71
2021/12/16 00:59:18;;;;;;;22.80;13.20;;;;;;;13.01;73.26;102092.75;5036798;28;20186;-72
2021/12/16 01:01:58;;;;;;;16.90;12.47;;;;;;;13.07;72.93;102090.66;5053278;28;20228;-71
2021/12/16 01:07:44;;;;;;;18.77;11.90;;;;;;;12.83;73.56;102084.53;5038475;28;20201;-72
2021/12/16 01:37:50;;;;;;;17.57;10.50;;;;;;;13.40;71.93;102093.69;5039450;28;20210;-71
2021/12/16 01:45:56;;;;;;;18.93;10.63;;;;;;;12.94;73.19;102116.22;5041517;28;20566;-71
2021/12/16 01:51:24;;;;;;;12.87;10.13;;;;;;;12.96;73.28;102111.66;5023912;28;20576;-69
2021/12/16 01:54:32;;;;;;;14.10;11.33;;;;;;;13.22;72.80;102128.47;5057761;28;20170;-72
2021/12/16 01:57:01;;;;;;;14.03;10.20;;;;;;;13.02;72.58;102115.94;5056615;28;20657;-71
2021/12/16 01:59:34;;;;;;;16.90;10.63;;;;;;;13.07;72.82;102111.22;5041335;28;20602;-71
2021/12/16 02:02:11;;;;;;;15.80;10.57;;;;;;;13.14;72.37;102126.97;5056879;28;20224;-72
2021/12/16 02:04:43;;;;;;;15.43;9.77;;;;;;;13.12;72.32;102118.13;5023984;28;20202;-71
2021/12/16 02:07:26;;;;;;;15.07;9.93;;;;;;;12.81;72.94;102118.56;5039888;28;20162;-72
2021/12/16 02:09:56;;;;;;;14.03;9.20;;;;;;;12.79;73.89;102131.16;5056991;28;20197;-72
2021/12/16 02:29:17;;;;;;;14.07;8.57;;;;;;;12.40;75.75;102127.41;5041149;28;20225;-71
2021/12/16 02:34:25;;;;;;;9.70;7.27;;;;;;;12.67;75.36;102131.66;5055934;28;20566;-71
2021/12/16 02:36:53;;;;;;;11.37;8.53;;;;;;;12.62;75.46;102128.28;5055876;28;20205;-71
2021/12/16 02:39:27;;;;;;;13.80;8.23;;;;;;;12.44;76.18;102134.41;5021658;28;20184;-72
2021/12/16 02:41:59;;;;;;;12.90;7.77;;;;;;;12.63;75.85;102135.38;5055728;28;20598;-70
2021/12/16 02:49:39;;;;;;;15.77;7.77;;;;;;;12.36;76.20;102133.84;5040907;28;20183;-71
2021/12/16 02:52:05;;;;;;;12.03;8.30;;;;;;;11.98;77.47;102143.34;5055712;28;20635;-71
2021/12/16 02:54:31;;;;;;;13.13;8.40;;;;;;;12.66;76.05;102134.41;5020884;28;20645;-70
2021/12/16 02:56:56;;;;;;;14.73;8.47;;;;;;;12.83;75.08;102137.25;5038286;28;20205;-71
2021/12/16 02:59:27;;;;;;;11.50;7.63;;;;;;;12.42;75.76;102125.56;5037734;28;20639;-71
2021/12/16 03:01:54;;;;;;;13.17;7.77;;;;;;;12.93;75.13;102132.38;5022126;28;20174;-71
2021/12/16 03:04:21;;;;;;;12.03;8.13;;;;;;;12.96;74.72;102126.88;5037799;28;20559;-71
2021/12/16 03:06:50;;;;;;;12.43;8.40;;;;;;;12.34;75.87;102131.22;5020925;28;20180;-71
2021/12/16 03:09:18;;;;;;;10.77;8.03;;;;;;;12.91;75.16;102144.97;5037743;28;20629;-71
2021/12/16 03:14:36;;;;;;;10.90;7.90;;;;;;;12.68;75.87;102144.13;5040247;28;20707;-71
2021/12/16 03:17:14;;;;;;;12.30;8.43;;;;;;;12.43;76.56;102167.47;5055295;28;20689;-70
2021/12/16 03:20:05;;;;;;;18.77;8.60;;;;;;;12.52;76.10;102146.53;5054859;28;20183;-71
2021/12/16 03:30:45;;;;;;;15.90;9.10;;;;;;;12.24;77.46;102161.06;5055192;28;20257;-71
2021/12/16 03:33:33;;;;;;;20.37;10.83;;;;;;;12.46;76.92;102154.81;5039754;28;20182;-71
2021/12/16 03:36:08;;;;;;;15.07;9.30;;;;;;;12.52;76.66;102151.88;5041205;28;20158;-71
2021/12/16 03:38:36;;;;;;;15.30;9.70;;;;;;;12.77;76.42;102161.63;5021578;28;20173;-72
2021/12/16 03:41:04;;;;;;;12.73;9.07;;;;;;;12.90;76.08;102170.00;5054462;28;20201;-71
2021/12/16 03:43:31;;;;;;;14.87;9.10;;;;;;;12.75;76.04;102167.03;5036558;28;20205;-72
2021/12/16 03:48:51;;;;;;;15.97;9.00;;;;;;;12.81;76.08;102174.81;5054803;28;20170;-71
2021/12/16 03:51:26;;;;;;;19.60;10.10;;;;;;;12.99;75.64;102169.63;5036618;28;20200;-72
2021/12/16 03:53:55;;;;;;;15.17;9.03;;;;;;;12.91;75.74;102178.00;5020457;28;20523;-71
2021/12/16 03:56:21;;;;;;;12.37;9.27;;;;;;;12.68;76.72;102181.63;5036405;28;20724;-71
2021/12/16 03:58:46;;;;;;;15.97;9.23;;;;;;;12.78;76.48;102180.31;5035553;28;20217;-71
2021/12/16 04:01:17;;;;;;;18.00;8.83;;;;;;;12.75;76.58;102182.25;5054036;28;20280;-71
2021/12/16 04:03:43;;;;;;;14.93;9.07;;;;;;;12.89;76.04;102174.50;5054657;28;20217;-71
2021/12/16 04:06:09;;;;;;;14.53;10.03;;;;;;;12.90;75.78;102183.41;5054276;28;20646;-71
2021/12/16 04:08:35;;;;;;;15.30;8.93;;;;;;;13.01;75.31;102191.91;5053989;28;20177;-72
2021/12/16 04:11:10;;;;;;;15.37;9.00;;;;;;;12.84;76.13;102187.22;5036351;28;20208;-71
2021/12/16 04:13:51;;;;;;;13.73;9.07;;;;;;;12.74;76.90;102197.44;5019950;28;20627;-71
2021/12/16 04:16:17;;;;;;;13.73;9.70;;;;;;;12.76;77.11;102195.56;5038668;28;20161;-71
2021/12/16 04:18:42;;;;;;;16.10;9.20;;;;;;;13.11;75.58;102193.25;5036504;28;20187;-71
2021/12/16 04:21:07;;;;;;;16.57;9.17;;;;;;;12.53;77.83;102199.16;5054288;28;20193;-71
2021/12/16 04:23:33;;;;;;;20.93;10.17;;;;;;;12.91;76.75;102196.75;5054109;28;20208;-72
2021/12/16 04:25:58;;;;;;;22.30;10.70;;;;;;;12.79;76.36;102187.41;5054432;28;20180;-72
2021/12/16 04:28:26;;;;;;;14.20;9.10;;;;;;;12.65;78.07;102200.50;5036256;28;20180;-72
2021/12/16 04:30:52;;;;;;;22.03;10.60;;;;;;;12.68;78.03;102189.66;5019205;28;20228;-72
2021/12/16 04:33:18;;;;;;;17.40;10.90;;;;;;;12.67;77.59;102179.88;5036019;28;20585;-72
2021/12/16 04:35:43;;;;;;;14.23;9.07;;;;;;;12.65;78.00;102189.78;5053794;28;20263;-72
2021/12/16 04:38:10;;;;;;;22.20;9.53;;;;;;;12.80;77.35;102191.84;5053522;28;20182;-72
2021/12/16 04:40:36;;;;;;;15.30;9.67;;;;;;;12.78;77.23;102188.34;5036187;28;20189;-72
2021/12/16 04:43:04;;;;;;;15.37;9.00;;;;;;;13.03;77.42;102203.44;5035932;28;20195;-72
2021/12/16 04:45:35;;;;;;;12.33;9.00;;;;;;;12.90;77.29;102197.69;5035965;28;20612;-72
2021/12/16 04:48:02;;;;;;;18.30;9.03;;;;;;;13.02;76.70;102209.72;5036382;28;20158;-72
2021/12/16 04:50:28;;;;;;;14.20;9.50;;;;;;;12.97;76.90;102209.88;5053607;28;20197;-72
2021/12/16 04:52:53;;;;;;;11.47;8.80;;;;;;;12.96;77.16;102220.66;5035798;28;20175;-71
2021/12/16 04:55:23;;;;;;;14.23;9.13;;;;;;;12.93;77.06;102215.44;5035448;28;20201;-72
2021/12/16 04:57:49;;;;;;;17.37;9.13;;;;;;;12.94;76.57;102212.69;5053606;28;20231;-72
2021/12/16 05:00:19;;;;;;;18.10;9.13;;;;;;;12.57;78.47;102232.03;5019278;28;20582;-72
2021/12/16 05:02:45;;;;;;;15.53;8.90;;;;;;;12.65;78.21;102232.66;5053417;28;20219;-72
2021/12/16 05:05:11;;;;;;;17.93;9.17;;;;;;;12.44;79.04;102241.50;5035833;28;20178;-71
2021/12/16 05:07:37;;;;;;;13.37;8.90;;;;;;;12.50;78.25;102227.88;5053171;28;20703;-72
2021/12/16 05:10:09;;;;;;;13.93;8.73;;;;;;;12.81;78.21;102214.13;5034916;28;20234;-72
2021/12/16 05:12:38;;;;;;;11.47;8.37;;;;;;;12.61;78.75;102231.00;5036668;28;20206;-72
2021/12/16 05:15:08;;;;;;;15.20;8.67;;;;;;;12.49;78.99;102235.03;5035519;28;20175;-72
2021/12/16 05:17:39;;;;;;;12.23;8.17;;;;;;;12.46;79.45;102236.97;5035416;28;20235;-70
2021/12/16 05:20:09;;;;;;;14.10;8.10;;;;;;;12.66;78.74;102236.19;5053273;28;20192;-71
2021/12/16 05:25:28;;;;;;;14.93;8.53;;;;;;;12.61;79.47;102236.34;5053205;28;20211;-71
2021/12/16 05:27:53;;;;;;;13.27;9.23;;;;;;;12.39;80.04;102241.69;5035022;28;20186;-71
2021/12/16 05:30:19;;;;;;;13.00;8.20;;;;;;;12.60;79.72;102228.38;5052687;28;20197;-70
2021/12/16 05:32:46;;;;;;;15.83;9.03;;;;;;;12.34;80.63;102234.75;5035218;28;20171;-71
2021/12/16 05:35:14;;;;;;;12.60;8.77;;;;;;;12.58;80.49;102244.50;5034749;28;20177;-71
2021/12/16 05:37:41;;;;;;;19.77;9.47;;;;;;;12.46;80.86;102255.69;5052704;28;20682;-70
2021/12/16 05:40:07;;;;;;;13.80;7.93;;;;;;;12.37;81.11;102259.59;5054171;28;20194;-71
2021/12/16 05:42:32;;;;;;;17.93;9.57;;;;;;;12.32;80.83;102228.59;5037445;28;20622;-72
2021/12/16 05:44:58;;;;;;;15.37;8.40;;;;;;;12.58;80.16;102225.75;5052624;28;20259;-71
2021/12/16 05:47:23;;;;;;;16.30;8.63;;;;;;;12.47;80.42;102252.09;5035136;28;20228;-71
2021/12/16 05:49:48;;;;;;;12.67;8.20;;;;;;;12.52;80.00;102247.44;5034840;28;20196;-72
2021/12/16 05:52:13;;;;;;;15.10;8.13;;;;;;;12.44;80.33;102260.25;5052888;28;20209;-71
2021/12/16 05:54:39;;;;;;;14.77;8.13;;;;;;;12.51;80.39;102265.31;5052530;28;20645;-63
2021/12/16 05:57:04;;;;;;;14.53;7.83;;;;;;;12.77;79.66;102274.13;5052354;28;20174;-62
2021/12/16 05:59:30;;;;;;;17.40;9.03;;;;;;;12.93;78.74;102266.34;5034854;28;20267;-64
2021/12/16 06:01:55;;;;;;;11.20;8.50;;;;;;;12.80;79.08;102274.88;5052473;28;20178;-62
2021/12/16 06:04:21;;;;;;;12.27;7.53;;;;;;;12.83;79.48;102287.28;5052761;28;20164;-64
2021/12/16 06:06:46;;;;;;;11.80;7.50;;;;;;;13.12;78.67;102291.50;5052368;28;20206;-63
2021/12/16 06:09:11;;;;;;;12.60;7.40;;;;;;;13.03;78.35;102283.84;5052650;28;20182;-63
2021/12/16 06:11:41;;;;;;;13.43;7.40;;;;;;;13.22;77.66;102278.63;5052150;28;20687;-63
2021/12/16 06:14:18;;;;;;;8.83;6.57;;;;;;;12.90;78.35;102278.06;5052379;28;20222;-63
2021/12/16 06:22:43;;;;;;;10.97;6.33;;;;;;;12.86;78.45;102302.38;5053608;28;20188;-73
2021/12/16 06:28:03;;;;;;;11.50;6.27;;;;;;;13.08;77.67;102289.88;5041124;28;20276;-72
2021/12/16 06:30:32;;;;;;;11.40;6.23;;;;;;;12.72;78.92;102293.06;5039073;28;20207;-73
2021/12/16 06:32:57;;;;;;;9.93;6.30;;;;;;;12.96;78.17;102299.25;5055782;28;20174;-72
2021/12/16 06:35:23;;;;;;;10.07;6.63;;;;;;;12.75;78.68;102308.16;5038047;28;20536;-73
2021/12/16 06:37:49;;;;;;;10.03;5.73;;;;;;;12.78;78.79;102292.84;5055689;28;20181;-72
2021/12/16 06:40:15;;;;;;;10.70;5.67;;;;;;;12.91;78.08;102286.97;5055993;28;20294;-72
2021/12/16 06:42:41;;;;;;;10.83;5.27;;;;;;;12.92;78.20;102267.28;5037714;28;20202;-72
2021/12/16 06:45:16;;;;;;;6.77;4.80;;;;;;;12.95;77.97;102302.88;5037882;28;20210;-72
2021/12/16 06:47:46;;;;;;;9.00;5.17;;;;;;;12.70;78.44;102284.22;5022426;28;20156;-73
2021/12/16 06:50:22;;;;;;;8.47;5.33;;;;;;;13.01;77.80;102291.94;5056024;28;20289;-73
2021/12/16 06:52:49;;;;;;;10.23;4.80;;;;;;;12.36;79.80;102307.84;5039044;28;20151;-72
2021/12/16 06:55:19;;;;;;;9.23;4.90;;;;;;;13.03;78.19;102306.16;5037941;28;20174;-72
2021/12/16 06:57:51;;;;;;;11.63;5.20;;;;;;;12.96;78.32;102319.81;5038304;28;20174;-72
2021/12/16 07:00:30;;;;;;;7.77;4.97;;;;;;;12.81;78.97;102338.25;5055649;28;20692;-72
2021/12/16 07:02:59;;;;;;;7.50;5.23;;;;;;;12.95;78.58;102324.31;5038599;28;20189;-72
2021/12/16 07:05:30;;;;;;;7.53;4.83;;;;;;;12.98;78.02;102331.34;5037884;28;20224;-72
2021/12/16 07:07:55;;;;;;;8.50;5.30;;;;;;;12.75;78.32;102330.47;5037511;28;20166;-72
2021/12/16 07:10:21;;;;;;;9.87;5.47;;;;;;;13.18;77.49;102350.25;5055053;28;20563;-73
2021/12/16 07:12:48;;;;;;;9.30;4.63;;;;;;;12.51;79.94;102359.03;5020727;28;20573;-72
2021/12/16 07:15:20;;;;;;;8.77;4.97;;;;;;;13.16;78.03;102357.47;5055211;28;20174;-73
2021/12/16 07:17:46;;;;;;;10.00;5.07;;;;;;;12.64;79.12;102347.88;5021452;28;20170;-72
2021/12/16 07:20:15;;;;;;;8.30;5.47;;;;;;;12.46;80.32;102362.81;5037388;28;20195;-71
2021/12/16 07:22:41;;;;;;;8.33;4.90;;;;;;;12.05;81.65;102359.81;5055355;28;20191;-73
2021/12/16 07:25:07;;;;;;;8.53;5.20;;;;;;;12.72;81.13;102384.16;5054790;28;20688;-72
2021/12/16 07:27:34;;;;;;;9.20;5.70;;;;;;;12.59;79.87;102369.44;5037435;28;20185;-72
2021/12/16 07:30:00;;;;;;;10.03;5.67;;;;;;;12.79;81.07;102396.38;5054528;28;20201;-72
2021/12/16 07:32:25;;;;;;;10.07;5.90;;;;;;;12.09;81.16;102369.47;5037009;28;20169;-74
2021/12/16 07:34:51;;;;;;;8.43;5.63;;;;;;;12.74;80.27;102392.16;5055159;28;20686;-72
2021/12/16 07:37:16;;;;;;;7.60;5.03;;;;;;;12.15;81.44;102374.63;5055430;28;20178;-72
2021/12/16 07:39:43;;;;;;;11.13;4.93;;;;;;;12.67;82.01;102393.31;5055149;28;20697;-72
2021/12/16 07:42:12;;;;;;;13.33;5.33;;;;;;;12.02;83.13;102400.06;5036637;28;20175;-73
2021/12/16 07:44:38;;;;;;;7.10;5.13;;;;;;;12.12;82.87;102400.63;5054711;28;20170;-73
2021/12/16 07:47:07;;;;;;;10.77;4.90;;;;;;;12.36;82.71;102406.94;5054628;28;20169;-71
2021/12/16 07:49:39;;;;;;;8.80;4.80;;;;;;;12.74;81.67;102422.47;5054631;28;20220;-73
2021/12/16 07:52:08;;;;;;;8.50;5.07;;;;;;;12.33;83.11;102426.66;5054158;28;20645;-72
2021/12/16 07:54:33;;;;;;;7.90;4.53;;;;;;;12.21;83.05;102394.94;5054939;28;20186;-73
2021/12/16 07:57:00;;;;;;;12.10;5.00;;;;;;;13.12;81.17;102428.22;5054324;28;20540;-72
2021/12/16 07:59:28;;;;;;;11.33;4.70;;;;;;;13.09;80.22;102431.00;5036583;28;20169;-72
2021/12/16 08:01:54;;;;;;;7.83;4.90;;;;;;;12.61;80.58;102425.66;5036559;28;20174;-72
2021/12/16 08:04:22;;;;;;;8.57;4.77;;;;;;;13.21;79.47;102433.25;5055288;28;20524;-72
2021/12/16 08:06:51;;;;;;;6.93;4.40;;;;;;;12.37;80.50;102424.75;5036864;28;20587;-71
2021/12/16 08:09:17;;;;;;;8.53;4.27;;;;;;;12.99;80.51;102446.53;5036265;28;20175;-73
2021/12/16 08:11:43;;;;;;;8.33;4.50;;;;;;;13.46;78.47;102446.59;5036089;28;20225;-72
2021/12/16 08:14:09;;;;;;;7.63;4.40;;;;;;;13.34;78.55;102453.28;5036756;28;20162;-72
2021/12/16 08:16:36;;;;;;;7.53;4.37;;;;;;;13.64;77.60;102459.25;5036347;28;20253;-71
2021/12/16 08:19:03;;;;;;;7.70;4.13;;;;;;;13.63;77.79;102456.63;5036116;28;20525;-72
2021/12/16 08:21:29;;;;;;;6.10;2.87;;;;;;;13.11;78.04;102438.06;5035807;28;20237;-71
2021/12/16 08:24:03;;;;;;;6.00;3.30;;;;;;;13.79;76.82;102441.69;5036290;28;20194;-73
2021/12/16 08:26:29;;;;;;;9.43;3.50;;;;;;;13.40;77.32;102445.03;5053988;28;20256;-73
2021/12/16 08:28:55;;;;;;;5.00;3.03;;;;;;;12.92;78.79;102444.16;5053672;28;20600;-73
2021/12/16 08:31:20;;;;;;;5.03;3.23;;;;;;;13.45;76.38;102442.16;5036199;28;20577;-73
2021/12/16 08:33:46;;;;;;;5.37;3.20;;;;;;;13.27;78.48;102478.59;5053840;28;20175;-72
2021/12/16 08:36:13;;;;;;;5.00;2.70;;;;;;;13.44;76.96;102467.22;5036065;28;20171;-74
2021/12/16 08:38:38;;;;;;;6.17;2.93;;;;;;;12.46;76.99;102419.06;5036134;28;20171;-72
2021/12/16 08:41:08;;;;;;;4.07;2.67;;;;;;;12.37;78.28;102422.06;5035735;28;20239;-72
2021/12/16 08:43:36;;;;;;;3.87;2.23;;;;;;;13.37;76.48;102454.97;5019663;28;20201;-73
2021/12/16 08:46:02;;;;;;;3.47;2.27;;;;;;;12.55;77.43;102453.53;5035400;28;20178;-72
2021/12/16 08:48:28;;;;;;;3.63;1.80;;;;;;;13.35;74.89;102449.66;5036655;28;20175;-73
2021/12/16 08:50:55;;;;;;;5.73;2.37;;;;;;;13.02;74.88;102451.81;5054422;28;20678;-72
2021/12/16 08:53:22;;;;;;;5.07;2.20;;;;;;;12.76;74.83;102438.50;5036586;28;20168;-72
2021/12/16 08:55:49;;;;;;;3.23;1.83;;;;;;;13.26;73.58;102458.06;5036466;28;20171;-72
2021/12/16 08:58:15;;;;;;;4.97;1.80;;;;;;;13.17;73.77;102468.25;5053974;28;20169;-72
2021/12/16 09:00:48;;;;;;;6.97;2.20;;;;;;;13.61;72.62;102470.09;5035432;28;20264;-72
2021/12/16 09:03:13;;;;;;;6.83;2.00;;;;;;;13.50;71.72;102450.00;5019331;28;20261;-72
2021/12/16 09:05:40;;;;;;;3.83;1.77;;;;;;;13.42;72.48;102459.25;5036030;28;20633;-72
2021/12/16 09:08:05;;;;;;;4.93;2.10;;;;;;;13.47;72.25;102463.56;5036219;28;20179;-72
2021/12/16 09:10:34;;;;;;;6.73;1.67;;;;;;;12.87;74.26;102464.91;5035329;28;20191;-72
2021/12/16 09:13:04;;;;;;;5.30;1.97;;;;;;;12.95;73.22;102461.00;5035216;28;20209;-71
2021/12/16 09:15:46;;;;;;;3.93;1.57;;;;;;;13.55;72.27;102472.16;5035613;28;20148;-73
2021/12/16 09:18:13;;;;;;;4.50;1.67;;;;;;;13.94;70.84;102477.75;5035550;28;20606;-72
2021/12/16 09:20:39;;;;;;;4.87;1.87;;;;;;;13.42;72.24;102479.81;5035199;28;20205;-72
2021/12/16 09:23:06;;;;;;;6.63;1.60;;;;;;;13.25;72.91;102493.00;5035069;28;20198;-72
2021/12/16 09:25:31;;;;;;;8.20;1.97;;;;;;;14.52;69.50;102495.00;5035211;28;20178;-74
2021/12/16 09:27:57;;;;;;;5.00;1.73;;;;;;;14.22;69.58;102489.09;5052958;28;20513;-73
2021/12/16 09:30:26;;;;;;;3.27;1.67;;;;;;;14.37;69.97;102503.66;5034815;28;20685;-72
2021/12/16 09:32:53;;;;;;;6.73;1.80;;;;;;;14.65;68.10;102488.16;5034977;28;20174;-73
2021/12/16 09:35:19;;;;;;;3.80;1.43;;;;;;;12.74;72.48;102494.81;5035138;28;20163;-73
2021/12/16 09:37:45;;;;;;;8.07;1.77;;;;;;;12.94;72.15;102474.44;5052814;28;20213;-72
2021/12/16 09:40:14;;;;;;;5.10;1.80;;;;;;;13.72;70.42;102481.28;5052658;28;20552;-72
2021/12/16 09:42:39;;;;;;;7.87;1.60;;;;;;;13.90;68.62;102462.69;5018496;28;20679;-73
2021/12/16 09:45:08;;;;;;;10.73;2.07;;;;;;;14.08;69.17;102494.13;5018393;28;20186;-74
2021/12/16 09:47:35;;;;;;;6.63;1.67;;;;;;;13.53;69.52;102482.97;5035326;28;20214;-73
2021/12/16 09:50:00;;;;;;;8.00;2.00;;;;;;;13.38;70.33;102476.41;5052579;28;20190;-73
2021/12/16 09:52:25;;;;;;;6.00;1.70;;;;;;;13.97;69.32;102486.53;5052682;28;20177;-72
2021/12/16 09:54:51;;;;;;;7.40;1.50;;;;;;;13.76;70.41;102498.16;5052718;28;20178;-72
2021/12/16 09:57:17;;;;;;;8.07;2.10;;;;;;;14.85;66.82;102494.44;5036370;28;20175;-72
2021/12/16 09:59:42;;;;;;;6.80;1.80;;;;;;;14.76;67.40;102506.47;5038750;28;20174;-73
2021/12/16 10:02:12;;;;;;;7.80;1.80;;;;;;;14.85;66.35;102511.44;5038759;28;20516;-72
2021/12/16 10:04:38;;;;;;;10.47;2.27;;;;;;;14.08;68.03;102499.50;5039452;28;20257;-72
2021/12/16 10:07:07;;;;;;;6.63;1.87;;;;;;;14.20;68.17;102509.75;5038810;28;20612;-72
2021/12/16 10:09:33;;;;;;;8.43;2.30;;;;;;;13.31;70.55;102512.41;5038396;28;20633;-73
2021/12/16 10:12:10;;;;;;;11.63;2.70;;;;;;;13.18;71.27;102512.91;5021977;28;20202;-72
2021/12/16 10:15:02;;;;;;;7.73;2.30;;;;;;;12.78;70.52;102472.34;5039340;28;20515;-72
2021/12/16 10:17:32;;;;;;;8.03;2.00;;;;;;;14.36;67.31;102512.66;5042971;28;20632;-73
2021/12/16 10:20:05;;;;;;;7.33;2.50;;;;;;;13.73;68.86;102501.81;5038597;28;20194;-73
2021/12/16 10:22:38;;;;;;;8.93;2.30;;;;;;;14.68;66.66;102522.94;5056151;28;20354;-74
2021/12/16 10:25:30;;;;;;;8.60;1.90;;;;;;;14.12;67.36;102511.88;5038859;28;20170;-74
2021/12/16 10:28:00;;;;;;;7.93;2.20;;;;;;;13.72;68.78;102515.28;5056371;28;20177;-73
2021/12/16 10:30:38;;;;;;;11.43;2.30;;;;;;;14.38;67.16;102510.78;5056839;28;20212;-72
2021/12/16 10:33:20;;;;;;;7.30;1.83;;;;;;;14.98;65.87;102520.72;5038654;28;20245;-73
2021/12/16 10:35:47;;;;;;;7.43;1.83;;;;;;;14.51;66.94;102520.13;5038558;28;20223;-73
2021/12/16 10:38:15;;;;;;;8.40;2.00;;;;;;;14.00;67.74;102517.75;5038229;28;20182;-74
2021/12/16 10:40:45;;;;;;;5.67;1.57;;;;;;;14.79;66.48;102524.28;5038352;28;20262;-73
2021/12/16 10:43:13;;;;;;;9.50;1.63;;;;;;;13.74;68.41;102510.72;5039220;28;20202;-73
2021/12/16 10:45:41;;;;;;;9.70;2.00;;;;;;;13.74;68.11;102503.56;5038808;28;20262;-71
2021/12/16 10:48:13;;;;;;;7.03;1.77;;;;;;;13.79;68.92;102526.69;5055719;28;20176;-72
2021/12/16 10:50:49;;;;;;;6.57;2.00;;;;;;;15.56;65.01;102544.94;5037769;28;20286;-72
2021/12/16 10:53:15;;;;;;;6.27;1.73;;;;;;;17.35;59.92;102562.94;5055739;28;20166;-71
2021/12/16 10:55:57;;;;;;;5.63;1.60;;;;;;;18.47;56.71;102587.25;5038930;28;20666;-73
2021/12/16 10:58:54;;;;;;;6.27;1.60;;;;;;;18.47;56.05;102549.41;5058962;28;20176;-72
2021/12/16 11:01:58;;;;;;;6.00;1.63;;;;;;;19.21;54.73;102579.22;5058028;28;20198;-72
2021/12/16 11:04:32;;;;;;;8.03;2.03;;;;;;;19.33;54.17;102584.75;5058022;28;20195;-72
2021/12/16 11:07:14;;;;;;;7.80;1.60;;;;;;;18.78;55.18;102570.13;5058187;28;20163;-74
2021/12/16 11:10:06;;;;;;;5.27;1.70;;;;;;;18.53;55.45;102566.13;5060189;28;20195;-73
2021/12/16 11:12:51;;;;;;;6.67;1.63;;;;;;;18.88;54.85;102577.59;5058069;28;20160;-71
2021/12/16 11:15:22;;;;;;;8.60;2.13;;;;;;;19.62;52.01;102542.31;5038381;28;20578;-71
2021/12/16 11:17:55;;;;;;;5.50;1.63;;;;;;;20.62;51.27;102599.00;5056194;28;20247;-73
2021/12/16 11:20:42;;;;;;;7.73;2.20;;;;;;;20.34;51.46;102571.97;5026121;28;20192;-71
2021/12/16 11:23:15;;;;;;;10.07;2.17;;;;;;;19.30;52.85;102546.16;5058794;28;20326;-73
2021/12/16 11:25:44;;;;;;;9.97;3.33;;;;;;;19.95;52.29;102573.63;5022715;28;20163;-72
2021/12/16 11:28:22;;;;;;;10.17;3.57;;;;;;;19.72;51.71;102536.31;5023123;28;20260;-72
2021/12/16 11:30:59;;;;;;;9.60;2.67;;;;;;;19.27;52.67;102543.63;5024754;28;20568;-71
2021/12/16 11:33:42;;;;;;;10.93;2.33;;;;;;;18.29;53.53;102514.41;5054789;28;20167;-71
2021/12/16 11:36:22;;;;;;;9.70;2.00;;;;;;;19.59;51.74;102536.22;5038190;28;20201;-72
2021/12/16 11:38:54;;;;;;;8.90;2.00;;;;;;;18.67;54.28;102527.50;5037324;28;20166;-73
2021/12/16 11:41:35;;;;;;;9.73;1.97;;;;;;;19.00;53.86;102555.22;5054837;28;20244;-73
2021/12/16 11:44:05;;;;;;;10.00;2.30;;;;;;;19.81;51.23;102543.84;5037994;28;20180;-73
2021/12/16 11:46:37;;;;;;;12.47;2.60;;;;;;;21.06;49.75;102571.53;5020375;28;20175;-72
2021/12/16 11:49:21;;;;;;;10.57;2.50;;;;;;;21.73;48.20;102566.75;5055074;28;20211;-72
2021/12/16 11:52:04;;;;;;;8.87;2.27;;;;;;;21.99;47.38;102566.72;5054875;28;20194;-71
2021/12/16 11:54:39;;;;;;;9.70;2.10;;;;;;;21.18;48.88;102548.94;5054753;28;20612;-72
2021/12/16 11:57:16;;;;;;;7.60;1.97;;;;;;;19.58;51.43;102531.78;5054715;28;20155;-72
2021/12/16 11:59:45;;;;;;;11.33;2.00;;;;;;;19.28;52.36;102529.13;5054817;28;20159;-71
2021/12/16 12:02:32;;;;;;;10.33;2.30;;;;;;;19.62;51.12;102509.81;5022768;28;20576;-74
2021/12/16 12:05:22;;;;;;;12.90;2.53;;;;;;;20.76;50.12;102541.94;5037626;28;20242;-72
2021/12/16 12:08:22;;;;;;;14.60;2.27;;;;;;;21.38;49.14;102558.44;5020513;28;20666;-72
2021/12/16 12:10:53;;;;;;;11.50;2.37;;;;;;;20.08;50.38;102525.78;5033089;28;20646;-72
2021/12/16 12:13:42;;;;;;;9.87;2.27;;;;;;;20.40;50.06;102544.47;5037203;28;20148;-71
2021/12/16 12:16:17;;;;;;;9.80;2.20;;;;;;;19.88;51.08;102537.06;5036934;28;20655;-73
2021/12/16 12:18:55;;;;;;;7.23;2.20;;;;;;;19.97;51.01;102536.44;5036764;28;20218;-74
2021/12/16 12:21:25;;;;;;;9.23;2.10;;;;;;;19.22;51.71;102521.41;5053970;28;20195;-70
2021/12/16 12:23:54;;;;;;;8.93;2.33;;;;;;;19.31;52.31;102526.22;5055312;28;20199;-72
2021/12/16 12:26:20;;;;;;;8.63;2.17;;;;;;;19.61;51.77;102528.88;5036952;28;20175;-72
2021/12/16 12:28:52;;;;;;;13.73;5.83;;;;;;;19.28;52.40;102534.53;5037810;28;20203;-71
2021/12/16 12:31:21;;;;;;;9.63;2.50;;;;;;;19.09;52.78;102517.72;5049592;22;20246;-73
2021/12/16 12:33:47;;;;;;;10.90;2.23;;;;;;;19.10;52.53;102522.19;5021266;28;20271;-73
2021/12/16 12:36:14;;;;;;;12.90;3.40;;;;;;;20.34;50.20;102525.88;5020898;28;20211;-74
2021/12/16 12:38:40;;;;;;;11.80;2.63;;;;;;;19.35;51.94;102519.69;5020720;28;20206;-73
2021/12/16 12:41:06;;;;;;;17.83;3.57;;;;;;;20.18;49.95;102532.31;5020164;28;20230;-72
2021/12/16 12:43:35;;;;;;;9.77;2.27;;;;;;;20.04;50.24;102532.34;5020215;28;20560;-74
2021/12/16 12:46:02;;;;;;;11.70;3.47;;;;;;;18.79;53.26;102537.59;5021180;28;20175;-74
2021/12/16 12:48:28;;;;;;;19.90;6.27;;;;;;;18.89;52.52;102519.81;5038515;28;20202;-73
2021/12/16 12:50:57;;;;;;;15.17;4.50;;;;;;;18.88;52.22;102518.06;5037054;28;20191;-73
2021/12/16 12:53:23;;;;;;;17.87;4.00;;;;;;;18.95;52.41;102523.97;5038802;28;20193;-74
2021/12/16 12:55:50;;;;;;;16.90;4.97;;;;;;;18.58;52.92;102506.38;5060739;28;20667;-74
2021/12/16 12:58:18;;;;;;;13.17;3.53;;;;;;;19.64;51.42;102544.91;5042401;28;20183;-73
2021/12/16 13:00:47;;;;;;;11.77;2.90;;;;;;;19.54;51.37;102546.47;5028050;28;20195;-74
2021/12/16 13:03:17;;;;;;;14.17;2.50;;;;;;;20.63;49.26;102551.06;5044390;28;20195;-73
2021/12/16 13:06:01;;;;;;;11.10;2.60;;;;;;;18.62;52.34;102516.09;5026525;28;20171;-73
2021/12/16 13:08:29;;;;;;;14.57;2.53;;;;;;;17.40;55.09;102517.69;5058550;28;20191;-74
2021/12/16 13:11:07;;;;;;;11.57;2.87;;;;;;;15.89;57.55;102494.06;5022947;28;20199;-73
2021/12/16 13:13:40;;;;;;;12.63;2.90;;;;;;;15.51;58.05;102476.16;5054193;28;20151;-74
2021/12/16 13:16:33;;;;;;;13.37;3.10;;;;;;;16.03;58.61;102520.31;5020614;28;20194;-74
2021/12/16 13:27:37;;;;;;;14.23;2.67;;;;;;;16.27;57.44;102524.47;5038503;28;20187;-72
2021/12/16 13:30:18;;;;;;;10.00;2.10;;;;;;;16.29;58.57;102529.78;5038467;28;20155;-74
2021/12/16 13:33:27;;;;;;;16.83;3.27;;;;;;;14.97;60.60;102519.00;5027220;28;20365;-73
2021/12/16 13:36:05;;;;;;;14.70;2.93;;;;;;;15.63;59.16;102537.53;5046783;28;20172;-73
2021/12/16 13:38:43;;;;;;;13.83;2.57;;;;;;;15.72;60.30;102542.47;5043085;28;20164;-73
2021/12/16 13:41:12;;;;;;;12.57;2.57;;;;;;;16.30;58.60;102553.09;5023718;28;20294;-73
2021/12/16 13:43:38;;;;;;;11.70;2.50;;;;;;;14.72;61.89;102547.88;5039914;28;20207;-73